createdAt,value
2018-04-06T00:01:50.311Z,5.40
2018-04-06T00:04:17.053Z,3.80
2018-04-06T00:06:43.793Z,4.30
2018-04-06T00:09:10.521Z,5.63
2018-04-06T00:11:37.262Z,5.50
2018-04-06T00:14:03.991Z,2.87
2018-04-06T00:16:30.720Z,4.20
2018-04-06T00:18:57.469Z,4.13
2018-04-06T00:21:24.233Z,3.93
2018-04-06T00:23:50.972Z,4.70
2018-04-06T00:26:17.706Z,2.80
2018-04-06T00:28:44.440Z,3.43
2018-04-06T00:31:11.201Z,4.27
2018-04-06T00:33:38.038Z,2.83
2018-04-06T00:36:04.766Z,3.13
2018-04-06T00:38:31.528Z,4.00
2018-04-06T00:40:58.255Z,3.33
2018-04-06T00:43:25.217Z,3.07
2018-04-06T00:45:51.953Z,3.20
2018-04-06T00:48:18.721Z,3.30
2018-04-06T00:50:45.480Z,3.17
2018-04-06T00:53:18.033Z,1.93
2018-04-06T00:55:44.905Z,2.30
2018-04-06T00:58:11.626Z,3.77
2018-04-06T01:00:38.352Z,3.70
2018-04-06T01:03:05.128Z,4.93
2018-04-06T01:05:31.883Z,2.80
2018-04-06T01:07:58.593Z,2.87
2018-04-06T01:10:25.334Z,4.13
2018-04-06T01:12:52.086Z,3.53
2018-04-06T01:15:18.902Z,4.30
2018-04-06T01:17:45.653Z,5.10
2018-04-06T01:20:12.792Z,3.20
2018-04-06T01:22:39.542Z,5.97
2018-04-06T01:25:06.269Z,7.33
2018-04-06T01:27:33.080Z,7.87
2018-04-06T01:29:59.814Z,6.07
2018-04-06T01:32:26.560Z,6.03
2018-04-06T01:34:53.287Z,6.73
2018-04-06T01:37:20.031Z,5.77
2018-04-06T01:39:46.892Z,5.57
2018-04-06T01:42:13.657Z,3.63
2018-04-06T01:44:40.424Z,7.10
2018-04-06T01:47:07.166Z,8.57
2018-04-06T01:49:33.893Z,8.07
2018-04-06T01:52:00.629Z,4.93
2018-04-06T01:54:27.395Z,5.83
2018-04-06T01:56:54.140Z,6.07
2018-04-06T01:59:20.874Z,6.63
2018-04-06T02:01:47.821Z,5.17
2018-04-06T02:04:14.589Z,5.57
2018-04-06T02:06:41.320Z,4.23
2018-04-06T02:09:08.057Z,8.87
2018-04-06T02:11:34.788Z,7.93
2018-04-06T02:14:01.558Z,5.53
2018-04-06T02:16:28.292Z,6.90
2018-04-06T02:18:55.028Z,5.90
2018-04-06T02:21:21.756Z,6.93
2018-04-06T02:23:48.519Z,4.50
2018-04-06T02:26:15.266Z,7.37
2018-04-06T02:28:42.004Z,3.13
2018-04-06T02:31:08.759Z,6.27
2018-04-06T02:33:35.501Z,1.97
2018-04-06T02:36:02.241Z,1.67
2018-04-06T02:38:28.970Z,1.60
2018-04-06T02:40:55.709Z,1.77
2018-04-06T02:43:23.117Z,1.00
2018-04-06T02:45:49.859Z,1.07
2018-04-06T02:48:16.647Z,1.37
2018-04-06T02:50:43.405Z,0.80
2018-04-06T02:53:10.142Z,1.00
2018-04-06T02:55:36.910Z,1.30
2018-04-06T02:58:03.761Z,1.30
2018-04-06T03:00:30.507Z,1.40
2018-04-06T03:02:57.240Z,1.63
2018-04-06T03:05:23.981Z,1.17
2018-04-06T03:07:50.720Z,1.47
2018-04-06T03:10:17.464Z,1.50
2018-04-06T03:12:44.200Z,2.30
2018-04-06T03:15:10.956Z,0.73
2018-04-06T03:17:37.723Z,2.93
2018-04-06T03:20:04.466Z,2.10
2018-04-06T03:22:31.257Z,2.07
2018-04-06T03:24:58.010Z,2.53
2018-04-06T03:27:24.793Z,1.77
2018-04-06T03:29:51.532Z,1.80
2018-04-06T03:32:18.264Z,2.20
2018-04-06T03:34:45.076Z,2.17
2018-04-06T03:37:11.933Z,1.50
2018-04-06T03:39:38.774Z,2.23
2018-04-06T03:42:07.523Z,2.17
2018-04-06T03:44:34.877Z,2.27
2018-04-06T03:47:01.642Z,2.30
2018-04-06T03:49:28.368Z,2.47
2018-04-06T03:51:55.116Z,1.73
2018-04-06T03:54:21.854Z,2.70
2018-04-06T03:56:48.596Z,2.10
2018-04-06T03:59:15.487Z,2.67
2018-04-06T04:01:42.485Z,2.00
2018-04-06T04:04:09.937Z,2.30
2018-04-06T04:06:36.789Z,2.13
2018-04-06T04:09:03.914Z,2.83
2018-04-06T04:11:30.665Z,1.70
2018-04-06T04:13:57.399Z,3.57
2018-04-06T04:16:24.165Z,3.40
2018-04-06T04:18:51.052Z,1.90
2018-04-06T04:21:17.812Z,2.47
2018-04-06T04:23:44.536Z,2.10
2018-04-06T04:26:11.268Z,1.50
2018-04-06T04:28:38.264Z,3.27
2018-04-06T04:31:05.008Z,2.33
2018-04-06T04:33:31.797Z,3.10
2018-04-06T04:35:58.579Z,2.80
2018-04-06T04:38:26.816Z,2.93
2018-04-06T04:40:53.578Z,2.40
2018-04-06T04:43:20.321Z,1.73
2018-04-06T04:45:47.057Z,1.40
2018-04-06T04:48:16.036Z,1.13
2018-04-06T04:50:42.795Z,1.50
2018-04-06T04:53:09.534Z,2.23
2018-04-06T04:55:36.352Z,1.67
2018-04-06T04:58:03.098Z,1.80
2018-04-06T05:00:29.838Z,2.33
2018-04-06T05:02:56.584Z,1.63
2018-04-06T05:05:23.320Z,1.40
2018-04-06T05:07:50.629Z,2.20
2018-04-06T05:10:17.434Z,1.93
2018-04-06T05:12:44.205Z,2.60
2018-04-06T05:15:10.970Z,1.57
2018-04-06T05:17:39.113Z,2.60
2018-04-06T05:20:06.944Z,3.13
2018-04-06T05:22:38.772Z,1.57
2018-04-06T05:25:05.585Z,1.40
2018-04-06T05:27:32.355Z,1.83
2018-04-06T05:29:59.234Z,2.67
2018-04-06T05:32:26.870Z,1.90
2018-04-06T05:34:53.588Z,1.53
2018-04-06T05:37:20.564Z,0.90
2018-04-06T05:39:47.343Z,2.13
2018-04-06T05:42:14.104Z,0.80
2018-04-06T05:44:41.522Z,1.53
2018-04-06T05:47:08.262Z,1.90
2018-04-06T05:49:35.026Z,1.37
2018-04-06T05:52:01.776Z,1.60
2018-04-06T05:54:28.562Z,1.03
2018-04-06T05:56:55.464Z,0.87
2018-04-06T05:59:22.189Z,1.13
2018-04-06T06:01:48.961Z,1.30
2018-04-06T06:04:15.727Z,1.10
2018-04-06T06:06:42.480Z,1.90
2018-04-06T06:09:09.432Z,1.20
2018-04-06T06:11:36.197Z,2.30
2018-04-06T06:14:02.987Z,1.43
2018-04-06T06:16:30.313Z,2.67
2018-04-06T06:18:57.100Z,1.53
2018-04-06T06:21:23.857Z,0.67
2018-04-06T06:23:50.729Z,1.33
2018-04-06T06:26:17.452Z,2.87
2018-04-06T06:28:45.144Z,1.73
2018-04-06T06:31:13.093Z,1.87
2018-04-06T06:33:40.702Z,1.50
2018-04-06T06:36:09.652Z,0.80
2018-04-06T06:38:38.035Z,2.60
2018-04-06T06:41:06.780Z,1.30
2018-04-06T06:59:49.091Z,1.53
2018-04-06T07:02:15.846Z,1.93
2018-04-06T07:04:42.571Z,1.07
2018-04-06T07:07:09.578Z,1.17
2018-04-06T07:09:36.353Z,1.90
2018-04-06T07:12:03.297Z,1.07
2018-04-06T07:14:30.058Z,2.20
2018-04-06T07:16:57.492Z,1.83
2018-04-06T07:19:24.236Z,2.00
2018-04-06T07:21:51.108Z,1.73
2018-04-06T07:24:17.941Z,1.57
2018-04-06T07:26:46.653Z,2.83
2018-04-06T07:29:13.440Z,2.10
2018-04-06T07:31:40.186Z,4.00
2018-04-06T07:34:06.948Z,2.10
2018-04-06T07:36:33.731Z,2.20
2018-04-06T07:39:00.495Z,1.90
2018-04-06T07:41:27.221Z,1.73
2018-04-06T07:43:54.929Z,1.67
2018-04-06T07:46:21.706Z,2.13
2018-04-06T07:48:48.487Z,2.37
2018-04-06T07:51:15.225Z,3.53
2018-04-06T07:53:41.965Z,2.20
2018-04-06T07:56:08.704Z,3.07
2018-04-06T07:58:35.468Z,0.83
2018-04-06T08:01:02.192Z,2.53
2018-04-06T08:03:28.936Z,1.03
2018-04-06T08:05:55.670Z,3.57
2018-04-06T08:08:22.452Z,3.27
2018-04-06T08:10:49.203Z,2.43
2018-04-06T08:13:16.037Z,1.20
2018-04-06T08:15:42.792Z,1.67
2018-04-06T08:18:09.524Z,3.10
2018-04-06T08:20:36.252Z,1.83
2018-04-06T08:23:03.001Z,2.50
2018-04-06T08:25:29.748Z,2.13
2018-04-06T08:27:56.558Z,1.47
2018-04-06T08:30:23.289Z,2.80
2018-04-06T08:32:50.062Z,2.33
2018-04-06T08:35:16.789Z,2.90
2018-04-06T08:37:43.583Z,2.00
2018-04-06T08:40:10.323Z,2.40
2018-04-06T08:42:37.079Z,3.10
2018-04-06T08:45:03.845Z,2.10
2018-04-06T08:47:30.582Z,1.93
2018-04-06T08:49:57.311Z,1.40
2018-04-06T08:52:24.025Z,2.57
2018-04-06T08:54:50.813Z,2.30
2018-04-06T08:57:17.533Z,1.50
2018-04-06T08:59:44.264Z,1.67
2018-04-06T09:02:11.001Z,2.03
2018-04-06T09:04:37.747Z,1.90
2018-04-06T09:07:04.491Z,1.07
2018-04-06T09:09:31.229Z,2.23
2018-04-06T09:11:59.691Z,2.00
2018-04-06T09:14:26.430Z,2.13
2018-04-06T09:16:53.202Z,2.03
2018-04-06T09:19:19.965Z,2.37
2018-04-06T09:21:46.703Z,2.43
2018-04-06T09:24:13.445Z,1.70
2018-04-06T09:26:40.233Z,2.50
2018-04-06T09:29:06.969Z,1.97
2018-04-06T09:31:33.677Z,2.00
2018-04-06T09:34:00.404Z,1.73
2018-04-06T09:36:27.401Z,3.07
2018-04-06T09:38:54.171Z,1.53
2018-04-06T09:41:20.899Z,1.90
2018-04-06T09:43:47.644Z,2.30
2018-04-06T09:46:14.423Z,3.10
2018-04-06T09:48:41.160Z,2.40
2018-04-06T09:51:07.972Z,2.50
2018-04-06T09:53:34.724Z,1.90
2018-04-06T09:56:01.467Z,2.40
2018-04-06T09:58:28.205Z,2.87
2018-04-06T10:00:58.770Z,2.27
2018-04-06T10:03:25.515Z,1.30
2018-04-06T10:05:52.248Z,3.20
2018-04-06T10:08:18.999Z,2.87
2018-04-06T10:10:45.787Z,2.73
2018-04-06T10:13:12.543Z,2.40
2018-04-06T10:15:39.299Z,2.17
2018-04-06T10:18:06.036Z,2.10
2018-04-06T10:20:32.768Z,1.87
2018-04-06T10:22:59.508Z,2.37
2018-04-06T10:25:26.253Z,2.40
2018-04-06T10:27:53.013Z,2.00
2018-04-06T10:30:19.731Z,2.20
2018-04-06T10:32:46.458Z,2.33
2018-04-06T10:35:13.213Z,1.97
2018-04-06T10:37:40.144Z,2.47
2018-04-06T10:40:06.890Z,2.00
2018-04-06T10:42:33.651Z,2.00
2018-04-06T10:45:00.376Z,1.53
2018-04-06T10:47:27.125Z,1.60
2018-04-06T10:49:53.896Z,1.27
2018-04-06T10:52:20.656Z,2.07
2018-04-06T10:54:47.376Z,2.07
2018-04-06T10:57:14.117Z,2.10
2018-04-06T10:59:40.896Z,1.60
2018-04-06T11:02:07.620Z,1.90
2018-04-06T11:04:34.340Z,2.63
2018-04-06T11:07:01.086Z,2.57
2018-04-06T11:09:27.824Z,2.43
2018-04-06T11:11:54.593Z,1.63
2018-04-06T11:14:21.353Z,2.60
2018-04-06T11:16:48.093Z,3.23
2018-04-06T11:19:14.868Z,2.77
2018-04-06T11:21:41.620Z,2.97
2018-04-06T11:24:08.394Z,2.20
2018-04-06T11:26:35.138Z,2.23
2018-04-06T11:29:01.904Z,1.90
2018-04-06T11:31:28.646Z,2.17
2018-04-06T11:33:55.384Z,2.67
2018-04-06T11:36:22.109Z,3.47
2018-04-06T11:38:48.841Z,3.00
2018-04-06T11:41:15.725Z,3.00
2018-04-06T11:43:42.484Z,2.73
2018-04-06T11:46:09.293Z,2.47
2018-04-06T11:48:36.009Z,2.60
2018-04-06T11:51:02.744Z,2.80
2018-04-06T11:53:29.494Z,2.90
2018-04-06T11:55:56.230Z,3.10
2018-04-06T11:58:22.976Z,2.20
2018-04-06T12:00:49.717Z,2.33
2018-04-06T12:03:16.476Z,2.40
2018-04-06T12:05:43.209Z,3.23
2018-04-06T12:08:09.929Z,2.77
2018-04-06T12:10:36.713Z,2.37
2018-04-06T12:13:03.535Z,2.00
2018-04-06T12:15:30.224Z,2.17
2018-04-06T12:17:56.936Z,2.27
2018-04-06T12:20:24.162Z,2.23
2018-04-06T12:22:50.906Z,2.73
2018-04-06T12:25:17.795Z,2.40
2018-04-06T12:27:44.538Z,2.30
2018-04-06T12:30:11.321Z,2.40
2018-04-06T12:32:38.059Z,2.20
2018-04-06T12:35:04.796Z,2.93
2018-04-06T12:37:31.553Z,2.97
2018-04-06T12:39:58.329Z,2.73
2018-04-06T12:42:25.073Z,2.63
2018-04-06T12:44:51.809Z,2.00
2018-04-06T12:47:18.581Z,2.73
2018-04-06T12:49:45.345Z,2.73
2018-04-06T12:52:12.077Z,2.60
2018-04-06T12:54:38.840Z,2.30
2018-04-06T12:57:05.603Z,2.80
2018-04-06T12:59:32.377Z,2.63
2018-04-06T13:01:59.148Z,2.30
2018-04-06T13:04:26.069Z,2.50
2018-04-06T13:06:53.618Z,2.80
2018-04-06T13:09:20.363Z,2.33
2018-04-06T13:11:47.088Z,3.00
2018-04-06T13:14:13.829Z,2.33
2018-04-06T13:16:40.574Z,2.83
2018-04-06T13:19:07.344Z,2.80
2018-04-06T13:21:34.097Z,2.87
2018-04-06T13:24:00.837Z,3.40
2018-04-06T13:26:27.567Z,3.03
2018-04-06T13:28:54.344Z,2.83
2018-04-06T13:31:21.120Z,2.57
2018-04-06T13:33:47.939Z,1.77
2018-04-06T13:36:14.698Z,2.20
2018-04-06T13:38:41.437Z,2.07
2018-04-06T13:41:08.204Z,2.27
2018-04-06T13:43:34.929Z,3.03
2018-04-06T13:46:01.669Z,2.40
2018-04-06T13:48:28.416Z,2.83
2018-04-06T13:50:55.177Z,3.33
2018-04-06T13:53:21.921Z,2.90
2018-04-06T13:55:48.689Z,1.97
2018-04-06T13:58:15.458Z,2.60
2018-04-06T14:00:43.011Z,2.40
2018-04-06T14:03:09.761Z,2.10
2018-04-06T14:05:36.487Z,2.50
2018-04-06T14:08:03.285Z,2.10
2018-04-06T14:10:30.049Z,2.60
2018-04-06T14:12:56.800Z,2.73
2018-04-06T14:15:23.544Z,2.70
2018-04-06T14:17:50.576Z,3.67
2018-04-06T14:20:17.383Z,2.90
2018-04-06T14:22:44.136Z,3.20
2018-04-06T14:25:11.627Z,3.33
2018-04-06T14:29:14.395Z,2.17
2018-04-06T14:31:41.212Z,2.43
2018-04-06T14:34:07.960Z,1.80
2018-04-06T14:36:34.701Z,1.87
2018-04-06T14:39:01.441Z,2.13
2018-04-06T14:41:28.202Z,2.77
2018-04-06T14:43:54.933Z,2.80
2018-04-06T14:46:21.715Z,2.60
2018-04-06T14:48:48.508Z,2.40
2018-04-06T14:51:15.294Z,2.80
2018-04-06T14:53:42.041Z,2.77
2018-04-06T14:56:08.752Z,2.73
2018-04-06T14:58:35.980Z,2.23
2018-04-06T15:01:03.495Z,2.73
2018-04-06T15:03:30.289Z,2.30
2018-04-06T15:05:57.383Z,2.63
2018-04-06T15:08:24.173Z,2.50
2018-04-06T15:10:51.101Z,2.40
2018-04-06T15:13:27.850Z,3.33
2018-04-06T15:15:54.628Z,2.50
2018-04-06T15:18:21.786Z,3.00
2018-04-06T15:20:48.598Z,3.00
2018-04-06T15:23:15.453Z,2.23
2018-04-06T15:25:44.388Z,2.47
2018-04-06T15:28:12.148Z,2.43
2018-04-06T15:30:39.370Z,2.20
2018-04-06T15:33:06.156Z,3.07
2018-04-06T15:35:33.206Z,2.10
2018-04-06T15:38:00.716Z,2.70
2018-04-06T15:40:27.499Z,2.33
2018-04-06T15:42:54.321Z,2.67
2018-04-06T15:45:21.183Z,2.60
2018-04-06T15:47:49.366Z,2.50
2018-04-06T15:50:17.182Z,1.97
2018-04-06T15:52:44.177Z,2.40
2018-04-06T15:55:10.948Z,2.40
2018-04-06T15:57:38.634Z,2.50
2018-04-06T16:00:10.372Z,2.77
2018-04-06T16:02:37.240Z,3.43
2018-04-06T16:05:04.146Z,3.17
2018-04-06T16:07:31.352Z,2.60
2018-04-06T16:09:58.376Z,5.27
2018-04-06T16:12:25.172Z,2.37
2018-04-06T16:14:52.067Z,2.77
2018-04-06T16:17:18.862Z,4.33
2018-04-06T16:19:45.824Z,4.80
2018-04-06T16:22:12.707Z,2.20
2018-04-06T16:24:39.816Z,2.33
2018-04-06T16:27:06.630Z,2.30
2018-04-06T16:29:33.527Z,2.07
2018-04-06T16:32:00.679Z,2.20
2018-04-06T16:34:27.810Z,2.60
2018-04-06T16:36:54.641Z,2.23
2018-04-06T16:39:21.434Z,2.67
2018-04-06T16:41:50.881Z,2.53
2018-04-06T16:44:18.802Z,2.63
2018-04-06T16:46:47.272Z,2.43
2018-04-06T16:49:14.084Z,3.03
2018-04-06T16:51:40.865Z,2.97
2018-04-06T16:54:18.043Z,2.27
2018-04-06T16:56:45.212Z,2.43
2018-04-06T16:59:12.102Z,2.70
2018-04-06T17:01:39.884Z,2.70
2018-04-06T17:04:07.546Z,2.40
2018-04-06T17:06:34.584Z,2.77
2018-04-06T17:09:01.447Z,2.97
2018-04-06T17:11:28.292Z,3.13
2018-04-06T17:13:56.335Z,3.40
2018-04-06T17:16:23.162Z,2.60
2018-04-06T17:18:50.685Z,3.00
2018-04-06T17:21:18.207Z,3.00
2018-04-06T17:23:45.111Z,3.90
2018-04-06T17:26:11.936Z,4.00
2018-04-06T17:28:38.840Z,5.07
2018-04-06T17:31:15.700Z,4.23
2018-04-06T17:33:42.570Z,4.83
2018-04-06T17:36:09.489Z,5.53
2018-04-06T17:38:36.277Z,4.20
2018-04-06T17:41:03.103Z,3.67
2018-04-06T17:43:30.835Z,3.73
2018-04-06T17:45:59.107Z,3.57
2018-04-06T17:48:26.477Z,4.03
2018-04-06T17:50:53.277Z,6.40
2018-04-06T17:53:20.050Z,4.80
2018-04-06T17:55:46.937Z,5.43
2018-04-06T17:58:14.162Z,6.67
2018-04-06T18:00:41.238Z,6.50
2018-04-06T18:03:08.476Z,6.70
2018-04-06T18:05:35.961Z,6.83
2018-04-06T18:10:55.183Z,5.93
2018-04-06T18:13:22.532Z,4.83
2018-04-06T18:15:49.414Z,4.00
2018-04-06T18:18:16.797Z,4.07
2018-04-06T18:20:44.429Z,4.43
2018-04-06T18:23:11.463Z,4.00
2018-04-06T18:25:38.221Z,3.50
2018-04-06T18:28:04.994Z,4.27
2018-04-06T18:30:31.874Z,3.73
2018-04-06T18:32:58.693Z,6.90
2018-04-06T18:35:25.507Z,5.23
2018-04-06T18:37:53.524Z,11.13
2018-04-06T18:40:21.084Z,8.80
2018-04-06T18:42:48.632Z,9.23
2018-04-06T18:45:15.474Z,13.50
2018-04-06T18:47:43.070Z,12.87
2018-04-06T18:50:09.935Z,9.13
2018-04-06T18:52:36.780Z,7.83
2018-04-06T18:55:05.741Z,10.53
2018-04-06T18:57:34.140Z,16.77
2018-04-06T19:00:00.975Z,15.37
2018-04-06T19:02:28.011Z,23.23
2018-04-06T19:04:54.799Z,105.73
2018-04-06T19:07:22.140Z,57.63
2018-04-06T19:09:49.212Z,43.13
2018-04-06T19:12:16.024Z,61.33
2018-04-06T19:14:53.708Z,49.77
2018-04-06T19:17:21.828Z,48.83
2018-04-06T19:19:49.169Z,59.17
2018-04-06T19:22:16.992Z,63.60
2018-04-06T19:24:43.872Z,51.60
2018-04-06T19:27:10.795Z,50.10
2018-04-06T19:29:38.504Z,33.13
2018-04-06T19:32:05.833Z,22.27
2018-04-06T19:34:33.636Z,23.60
2018-04-06T19:37:00.784Z,22.43
2018-04-06T19:39:28.361Z,23.70
2018-04-06T19:41:55.259Z,28.10
2018-04-06T19:44:23.558Z,32.40
2018-04-06T19:46:50.721Z,39.83
2018-04-06T19:49:18.188Z,68.47
2018-04-06T19:51:44.961Z,22.57
2018-04-06T19:54:13.452Z,19.20
2018-04-06T19:56:42.363Z,25.83
2018-04-06T19:59:09.197Z,28.70
2018-04-06T20:01:36.050Z,31.17
2018-04-06T20:04:03.893Z,42.57
2018-04-06T20:06:30.668Z,48.60
2018-04-06T20:08:57.472Z,56.90
2018-04-06T20:11:24.503Z,54.63
2018-04-06T20:13:51.345Z,54.60
2018-04-06T20:16:18.124Z,53.47
2018-04-06T20:18:45.987Z,52.37
2018-04-06T20:21:13.246Z,52.30
2018-04-06T20:23:40.140Z,163.83
2018-04-06T20:26:06.992Z,147.17
2018-04-06T20:28:43.914Z,109.13
2018-04-06T20:33:50.371Z,103.37
2018-04-06T20:36:17.521Z,62.17
2018-04-06T20:38:44.370Z,46.47
2018-04-06T20:41:12.752Z,36.77
2018-04-06T20:43:39.926Z,127.97
2018-04-06T20:46:06.869Z,47.22
2018-04-06T20:48:34.608Z,30.67
2018-04-06T20:51:02.550Z,31.50
2018-04-06T20:53:29.375Z,24.00
2018-04-06T20:55:56.292Z,22.90
2018-04-06T20:58:23.429Z,24.43
2018-04-06T21:00:50.270Z,22.73
2018-04-06T21:03:17.960Z,22.77
2018-04-06T21:05:44.751Z,22.57
2018-04-06T21:08:12.982Z,16.63
2018-04-06T21:10:39.813Z,15.70
2018-04-06T21:13:09.484Z,18.87
2018-04-06T21:15:39.168Z,14.53
2018-04-06T21:18:08.506Z,14.40
2018-04-06T21:20:36.128Z,15.57
2018-04-06T21:23:03.501Z,16.93
2018-04-06T21:25:31.592Z,19.47
2018-04-06T21:28:00.664Z,15.47
2018-04-06T21:40:39.115Z,15.20
2018-04-06T21:43:07.264Z,16.47
2018-04-06T21:45:34.229Z,20.17
2018-04-06T21:50:44.500Z,20.73
2018-04-06T21:53:12.514Z,42.40
2018-04-06T21:55:42.084Z,23.53
2018-04-06T21:58:09.012Z,23.00
2018-04-06T22:00:36.094Z,22.10
2018-04-06T22:03:03.389Z,26.20
2018-04-06T22:05:30.232Z,29.17
2018-04-06T22:07:57.404Z,25.70
2018-04-06T22:10:25.211Z,34.03
2018-04-06T22:12:52.605Z,22.40
2018-04-06T22:15:22.467Z,21.23
2018-04-06T22:20:43.493Z,22.80
2018-04-06T22:23:10.873Z,23.53
2018-04-06T22:25:38.885Z,21.70
2018-04-06T22:28:05.652Z,23.50
2018-04-06T22:30:33.103Z,26.00
2018-04-06T22:33:00.229Z,23.90
2018-04-06T22:35:27.757Z,23.53
2018-04-06T22:37:54.623Z,22.97
2018-04-06T22:40:22.253Z,23.57
2018-04-06T22:42:49.756Z,30.03
2018-04-06T22:45:16.576Z,22.87
2018-04-06T22:47:43.633Z,22.70
2018-04-06T22:50:11.155Z,25.07
2018-04-06T22:52:38.541Z,31.37
2018-04-06T22:55:05.333Z,41.67
2018-04-06T22:57:32.748Z,24.63
2018-04-06T23:00:05.072Z,22.50
2018-04-06T23:02:36.781Z,24.07
2018-04-06T23:08:25.092Z,51.47
2018-04-06T23:11:13.398Z,30.97
2018-04-06T23:13:44.949Z,26.97
2018-04-06T23:16:11.817Z,30.63
2018-04-06T23:18:49.958Z,29.70
2018-04-06T23:21:17.264Z,32.20
2018-04-06T23:23:44.504Z,33.67
2018-04-06T23:26:11.317Z,33.53
2018-04-06T23:28:38.120Z,32.57
2018-04-06T23:31:05.031Z,32.00
2018-04-06T23:33:32.938Z,32.17
2018-04-06T23:35:59.752Z,32.00
2018-04-06T23:38:26.530Z,32.30
2018-04-06T23:40:54.251Z,29.73
2018-04-06T23:43:22.192Z,31.17
2018-04-06T23:45:48.971Z,31.40
2018-04-06T23:48:16.054Z,32.73
2018-04-06T23:50:42.872Z,31.77
2018-04-06T23:53:11.478Z,32.37
2018-04-06T23:55:39.637Z,33.43
2018-04-06T23:58:06.401Z,33.40
